createdAt,value
2022-10-11T00:01:06.396Z,78.50
2022-10-11T00:03:34.218Z,78.57
2022-10-11T00:06:03.686Z,78.48
2022-10-11T00:08:32.120Z,78.61
2022-10-11T00:11:00.574Z,78.75
2022-10-11T00:13:28.815Z,78.54
2022-10-11T00:15:58.480Z,78.58
2022-10-11T00:18:26.607Z,78.46
2022-10-11T00:21:02.283Z,78.69
2022-10-11T00:23:30.056Z,78.92
2022-10-11T00:25:59.650Z,78.63
2022-10-11T00:28:27.511Z,78.64
2022-10-11T00:30:55.342Z,78.81
2022-10-11T00:33:24.521Z,78.47
2022-10-11T00:35:52.294Z,78.09
2022-10-11T00:38:20.081Z,78.06
2022-10-11T00:40:47.923Z,77.65
2022-10-11T00:43:18.389Z,77.53
2022-10-11T00:46:04.867Z,77.68
2022-10-11T00:48:40.189Z,77.80
2022-10-11T00:51:14.786Z,78.31
2022-10-11T00:53:42.794Z,78.56
2022-10-11T00:56:15.560Z,78.80
2022-10-11T00:58:43.749Z,78.64
2022-10-11T01:01:14.356Z,78.88
2022-10-11T01:03:43.622Z,78.55
2022-10-11T01:06:11.504Z,78.16
2022-10-11T01:08:39.853Z,78.12
2022-10-11T01:11:07.634Z,78.41
2022-10-11T01:13:42.603Z,78.88
2022-10-11T01:16:15.296Z,78.77
2022-10-11T01:18:48.950Z,78.33
2022-10-11T01:21:26.909Z,78.14
2022-10-11T01:24:27.213Z,78.09
2022-10-11T01:27:31.381Z,77.91
2022-10-11T01:30:06.597Z,78.58
2022-10-11T01:32:40.072Z,78.37
2022-10-11T01:35:11.282Z,78.42
2022-10-11T01:37:41.474Z,78.63
2022-10-11T01:40:12.366Z,79.13
2022-10-11T01:42:41.421Z,78.68
2022-10-11T01:45:10.933Z,78.80
2022-10-11T01:47:40.080Z,78.67
2022-10-11T01:50:09.085Z,78.50
2022-10-11T01:52:39.944Z,78.23
2022-10-11T01:55:17.549Z,78.61
2022-10-11T01:58:00.745Z,78.40
2022-10-11T02:00:31.446Z,78.09
2022-10-11T02:03:08.298Z,77.96
2022-10-11T02:05:39.085Z,77.59
2022-10-11T02:08:10.397Z,77.72
2022-10-11T02:10:41.519Z,77.63
2022-10-11T02:13:13.319Z,77.61
2022-10-11T02:15:42.582Z,77.67
2022-10-11T02:18:16.054Z,77.64
2022-10-11T02:20:44.366Z,78.05
2022-10-11T02:23:15.820Z,78.13
2022-10-11T02:25:44.871Z,77.91
2022-10-11T02:28:15.830Z,77.59
2022-10-11T02:30:45.138Z,77.82
2022-10-11T02:33:16.780Z,77.83
2022-10-11T02:35:48.579Z,77.85
2022-10-11T02:38:20.886Z,78.05
2022-10-11T02:40:51.873Z,77.97
2022-10-11T02:43:23.984Z,77.32
2022-10-11T02:45:54.404Z,77.23
2022-10-11T02:48:25.181Z,77.34
2022-10-11T02:50:55.706Z,77.34
2022-10-11T02:53:24.072Z,77.05
2022-10-11T02:55:52.972Z,77.22
2022-10-11T02:58:21.386Z,76.75
2022-10-11T03:00:49.181Z,76.87
2022-10-11T03:03:17.154Z,76.91
2022-10-11T03:05:46.441Z,76.93
2022-10-11T03:08:15.741Z,76.79
2022-10-11T03:10:44.074Z,76.93
2022-10-11T03:13:16.004Z,76.81
2022-10-11T03:15:49.438Z,77.30
2022-10-11T03:18:23.920Z,77.81
2022-10-11T03:20:53.015Z,77.48
2022-10-11T03:23:20.737Z,78.05
2022-10-11T03:25:48.453Z,77.87
2022-10-11T03:28:16.240Z,77.50
2022-10-11T03:30:44.009Z,77.50
2022-10-11T03:33:11.751Z,77.32
2022-10-11T03:35:40.590Z,76.97
2022-10-11T03:38:13.813Z,76.77
2022-10-11T03:40:41.589Z,77.56
2022-10-11T03:43:09.395Z,78.49
2022-10-11T03:45:37.569Z,78.92
2022-10-11T03:48:05.866Z,78.91
2022-10-11T03:50:33.651Z,78.73
2022-10-11T03:53:01.549Z,77.87
2022-10-11T03:55:30.686Z,77.13
2022-10-11T03:57:58.489Z,76.62
2022-10-11T04:00:26.346Z,76.84
2022-10-11T04:02:54.297Z,76.91
2022-10-11T04:05:22.041Z,76.37
2022-10-11T04:07:49.794Z,76.40
2022-10-11T04:10:17.752Z,76.36
2022-10-11T04:12:47.178Z,76.33
2022-10-11T04:15:14.994Z,76.06
2022-10-11T04:17:42.726Z,76.09
2022-10-11T04:20:11.379Z,76.89
2022-10-11T04:22:39.128Z,76.79
2022-10-11T04:25:07.927Z,76.76
2022-10-11T04:27:35.981Z,76.69
2022-10-11T04:30:05.673Z,76.57
2022-10-11T04:32:33.579Z,76.70
2022-10-11T04:35:01.667Z,76.99
2022-10-11T04:37:29.378Z,76.91
2022-10-11T04:39:57.136Z,76.61
2022-10-11T04:42:24.888Z,76.18
2022-10-11T04:44:52.629Z,76.23
2022-10-11T04:47:21.781Z,76.26
2022-10-11T04:49:49.510Z,76.45
2022-10-11T04:52:17.318Z,76.43
2022-10-11T04:54:45.211Z,76.13
2022-10-11T04:57:13.248Z,75.79
2022-10-11T04:59:41.204Z,76.36
2022-10-11T05:02:09.066Z,76.46
2022-10-11T05:04:38.196Z,76.96
2022-10-11T05:07:06.557Z,78.10
2022-10-11T05:09:34.290Z,77.79
2022-10-11T05:12:02.040Z,77.23
2022-10-11T05:14:29.789Z,76.54
2022-10-11T05:16:57.598Z,76.98
2022-10-11T05:19:25.395Z,77.03
2022-10-11T05:21:54.986Z,76.76
2022-10-11T05:24:22.866Z,76.63
2022-10-11T05:26:50.673Z,76.34
2022-10-11T05:29:18.443Z,76.08
2022-10-11T05:31:46.183Z,75.87
2022-10-11T05:34:13.904Z,76.33
2022-10-11T05:36:41.683Z,76.79
2022-10-11T05:39:10.801Z,77.62
2022-10-11T05:41:38.598Z,78.20
2022-10-11T05:44:08.565Z,79.11
2022-10-11T05:46:36.270Z,80.27
2022-10-11T05:49:04.024Z,80.35
2022-10-11T05:51:31.868Z,79.85
2022-10-11T05:54:00.159Z,79.60
2022-10-11T05:56:29.277Z,78.68
2022-10-11T05:59:02.050Z,78.11
2022-10-11T06:01:30.300Z,77.14
2022-10-11T06:03:58.174Z,76.99
2022-10-11T06:06:26.031Z,77.09
2022-10-11T06:08:53.796Z,77.02
2022-10-11T06:11:23.463Z,76.84
2022-10-11T06:13:54.072Z,76.59
2022-10-11T06:16:22.005Z,76.31
2022-10-11T06:18:49.707Z,76.24
2022-10-11T06:21:17.477Z,75.98
2022-10-11T06:23:45.216Z,76.33
2022-10-11T06:26:12.944Z,76.40
2022-10-11T06:28:40.863Z,76.51
2022-10-11T06:31:10.587Z,76.81
2022-10-11T06:33:38.778Z,76.87
2022-10-11T06:36:08.782Z,76.44
2022-10-11T06:38:39.803Z,76.07
2022-10-11T06:41:11.841Z,75.40
2022-10-11T06:43:39.585Z,76.16
2022-10-11T06:46:07.881Z,76.11
2022-10-11T06:48:40.590Z,76.12
2022-10-11T06:51:08.579Z,75.90
2022-10-11T06:53:36.575Z,76.28
2022-10-11T06:56:04.858Z,76.11
2022-10-11T06:58:32.844Z,76.19
2022-10-11T07:01:02.106Z,75.92
2022-10-11T07:03:30.468Z,75.68
2022-10-11T07:06:02.964Z,75.24
2022-10-11T07:08:30.855Z,75.15
2022-10-11T07:11:01.162Z,75.17
2022-10-11T07:13:28.966Z,74.86
2022-10-11T07:15:56.909Z,74.69
2022-10-11T07:18:24.712Z,74.65
2022-10-11T07:20:52.426Z,74.56
2022-10-11T07:23:21.542Z,74.47
2022-10-11T07:25:49.852Z,74.25
2022-10-11T07:28:17.576Z,74.42
2022-10-11T07:30:45.345Z,74.78
2022-10-11T07:33:13.099Z,74.52
2022-10-11T07:35:43.755Z,74.53
2022-10-11T07:38:15.237Z,74.57
2022-10-11T07:40:45.716Z,74.60
2022-10-11T07:43:14.710Z,74.59
2022-10-11T07:45:45.284Z,74.13
2022-10-11T07:48:13.066Z,73.89
2022-10-11T07:50:40.997Z,73.81
2022-10-11T07:53:09.943Z,73.48
2022-10-11T07:55:40.186Z,74.02
2022-10-11T07:58:09.846Z,75.10
2022-10-11T08:00:37.853Z,75.75
2022-10-11T08:03:06.670Z,74.79
2022-10-11T08:05:34.571Z,74.46
2022-10-11T08:08:02.449Z,74.67
2022-10-11T08:10:30.194Z,75.00
2022-10-11T08:13:03.405Z,74.87
2022-10-11T08:15:33.668Z,75.16
2022-10-11T08:18:01.485Z,74.55
2022-10-11T08:20:31.084Z,73.77
2022-10-11T08:22:58.869Z,72.63
2022-10-11T08:25:26.706Z,71.94
2022-10-11T08:27:54.487Z,71.64
2022-10-11T08:30:22.353Z,71.73
2022-10-11T08:32:51.590Z,72.16
2022-10-11T08:35:19.397Z,71.59
2022-10-11T08:37:47.949Z,70.39
2022-10-11T08:40:17.563Z,69.68
2022-10-11T08:42:47.849Z,68.38
2022-10-11T08:45:25.072Z,67.89
2022-10-11T08:48:03.016Z,68.42
2022-10-11T08:50:31.075Z,68.15
2022-10-11T08:53:00.775Z,67.01
2022-10-11T08:55:34.715Z,65.83
2022-10-11T08:58:02.758Z,65.82
2022-10-11T09:00:33.156Z,65.10
2022-10-11T09:03:08.892Z,64.51
2022-10-11T09:05:42.810Z,65.36
2022-10-11T09:08:14.694Z,65.41
2022-10-11T09:10:52.563Z,64.80
2022-10-11T09:13:34.464Z,64.04
2022-10-11T09:16:08.786Z,64.85
2022-10-11T09:18:47.681Z,63.26
2022-10-11T09:21:27.779Z,62.73
2022-10-11T09:24:08.712Z,62.15
2022-10-11T09:26:39.942Z,60.69
2022-10-11T09:29:13.601Z,60.42
2022-10-11T09:31:42.170Z,60.42
2022-10-11T09:34:14.072Z,59.78
2022-10-11T09:36:46.224Z,56.70
2022-10-11T09:39:26.791Z,57.14
2022-10-11T09:41:58.147Z,58.28
2022-10-11T09:44:27.328Z,56.00
2022-10-11T09:46:55.852Z,57.28
2022-10-11T09:49:29.036Z,56.29
2022-10-11T09:51:58.316Z,55.94
2022-10-11T09:54:38.865Z,53.65
2022-10-11T09:57:06.936Z,52.14
2022-10-11T09:59:35.650Z,50.77
2022-10-11T10:02:20.197Z,48.43
2022-10-11T10:05:15.104Z,47.46
2022-10-11T10:08:20.280Z,48.29
2022-10-11T10:10:54.691Z,48.43
2022-10-11T10:13:45.606Z,47.60
2022-10-11T10:16:21.833Z,48.13
2022-10-11T10:18:51.686Z,46.56
2022-10-11T10:21:26.687Z,46.32
2022-10-11T10:23:55.830Z,46.74
2022-10-11T10:26:25.709Z,48.39
2022-10-11T10:28:59.471Z,48.17
2022-10-11T10:31:44.166Z,48.75
2022-10-11T10:34:23.088Z,47.13
2022-10-11T10:36:55.897Z,48.05
2022-10-11T10:39:28.141Z,47.95
2022-10-11T10:41:56.511Z,46.19
2022-10-11T10:44:24.427Z,45.02
2022-10-11T10:47:01.089Z,42.07
2022-10-11T10:49:54.102Z,37.75
2022-10-11T10:52:49.287Z,35.54
2022-10-11T10:55:24.761Z,37.20
2022-10-11T10:58:09.643Z,35.47
2022-10-11T11:00:43.438Z,35.36
2022-10-11T11:03:17.705Z,35.59
2022-10-11T11:05:49.760Z,35.89
2022-10-11T11:08:32.204Z,35.88
2022-10-11T11:11:05.852Z,34.50
2022-10-11T11:13:43.874Z,35.38
2022-10-11T11:16:15.014Z,35.93
2022-10-11T11:18:46.775Z,37.32
2022-10-11T11:21:24.185Z,37.18
2022-10-11T11:24:00.511Z,38.00
2022-10-11T11:26:32.315Z,40.18
2022-10-11T11:29:17.387Z,38.56
2022-10-11T11:31:57.489Z,39.36
2022-10-11T11:34:27.665Z,38.98
2022-10-11T11:36:57.541Z,38.14
2022-10-11T11:39:31.576Z,37.81
2022-10-11T11:42:01.882Z,37.41
2022-10-11T11:44:32.433Z,37.63
2022-10-11T11:47:02.793Z,38.41
2022-10-11T11:49:33.579Z,38.14
2022-10-11T11:52:01.861Z,38.03
2022-10-11T11:54:40.386Z,37.66
2022-10-11T11:57:16.610Z,37.00
2022-10-11T11:59:46.927Z,36.56
2022-10-11T12:02:31.124Z,37.67
2022-10-11T12:04:59.126Z,37.82
2022-10-11T12:07:28.236Z,37.55
2022-10-11T12:10:17.399Z,37.89
2022-10-11T12:12:45.519Z,37.14
2022-10-11T12:15:21.072Z,35.87
2022-10-11T12:18:03.646Z,35.94
2022-10-11T12:20:32.416Z,36.18
2022-10-11T12:23:01.895Z,37.29
2022-10-11T12:25:42.477Z,37.15
2022-10-11T12:28:58.380Z,35.78
2022-10-11T12:31:27.724Z,35.17
2022-10-11T12:34:18.070Z,35.24
2022-10-11T12:36:47.088Z,35.32
2022-10-11T12:39:44.169Z,35.36
2022-10-11T12:42:24.048Z,37.38
2022-10-11T12:45:25.221Z,38.38
2022-10-11T12:47:57.606Z,40.10
2022-10-11T12:50:29.594Z,39.75
2022-10-11T12:53:02.724Z,40.10
2022-10-11T12:55:48.013Z,39.45
2022-10-11T12:58:27.666Z,38.93
2022-10-11T13:01:13.567Z,38.15
2022-10-11T13:03:42.633Z,39.53
2022-10-11T13:06:17.205Z,39.87
2022-10-11T13:08:47.018Z,39.77
2022-10-11T13:11:19.182Z,40.05
2022-10-11T13:13:53.539Z,40.41
2022-10-11T13:16:23.232Z,39.94
2022-10-11T13:18:56.083Z,39.81
2022-10-11T13:21:29.075Z,39.24
2022-10-11T13:23:59.557Z,39.46
2022-10-11T13:26:27.794Z,39.94
2022-10-11T13:28:56.944Z,39.27
2022-10-11T13:31:25.321Z,38.89
2022-10-11T13:33:55.874Z,38.96
2022-10-11T13:36:26.710Z,39.01
2022-10-11T13:38:56.345Z,38.45
2022-10-11T13:41:26.996Z,35.17
2022-10-11T13:46:27.237Z,34.15
2022-10-11T13:48:59.885Z,34.39
2022-10-11T13:51:30.144Z,34.91
2022-10-11T13:53:59.671Z,34.14
2022-10-11T13:56:27.979Z,31.48
2022-10-11T13:58:57.547Z,32.91
2022-10-11T14:01:27.905Z,32.56
2022-10-11T14:03:59.378Z,32.89
2022-10-11T14:06:40.589Z,32.17
2022-10-11T14:09:16.153Z,30.73
2022-10-11T14:11:43.991Z,31.30
2022-10-11T14:14:39.338Z,30.76
2022-10-11T14:17:13.933Z,29.97
2022-10-11T14:19:41.860Z,29.10
2022-10-11T14:24:40.821Z,30.13
2022-10-11T14:27:13.394Z,29.28
2022-10-11T14:30:00.302Z,28.70
2022-10-11T14:32:34.674Z,29.43
2022-10-11T14:35:02.476Z,31.80
2022-10-11T14:37:30.393Z,32.53
2022-10-11T14:39:58.198Z,33.47
2022-10-11T14:42:25.998Z,34.02
2022-10-11T14:44:55.126Z,35.46
2022-10-11T14:47:22.851Z,36.25
2022-10-11T14:49:50.617Z,35.47
2022-10-11T14:52:18.329Z,36.09
2022-10-11T14:54:46.105Z,36.83
2022-10-11T14:57:13.977Z,36.91
2022-10-11T14:59:42.044Z,36.67
2022-10-11T15:02:12.537Z,37.55
2022-10-11T15:04:40.342Z,38.38
2022-10-11T15:07:08.145Z,38.57
2022-10-11T15:09:35.953Z,38.80
2022-10-11T15:12:03.788Z,38.83
2022-10-11T15:14:31.509Z,38.74
2022-10-11T15:16:59.326Z,39.62
2022-10-11T15:19:28.512Z,39.36
2022-10-11T15:21:56.295Z,38.98
2022-10-11T15:24:24.089Z,38.72
2022-10-11T15:26:51.841Z,38.69
2022-10-11T15:29:21.851Z,38.98
2022-10-11T15:31:50.213Z,39.34
2022-10-11T15:34:18.239Z,39.91
2022-10-11T15:36:47.421Z,39.13
2022-10-11T15:39:27.393Z,39.60
2022-10-11T15:41:55.412Z,39.50
2022-10-11T15:44:23.204Z,40.17
2022-10-11T15:46:51.018Z,39.76
2022-10-11T15:49:19.237Z,39.88
2022-10-11T15:51:48.377Z,39.93
2022-10-11T15:54:16.158Z,40.18
2022-10-11T15:56:44.202Z,40.86
2022-10-11T15:59:12.677Z,41.22
2022-10-11T16:01:40.571Z,42.19
2022-10-11T16:04:08.349Z,42.02
2022-10-11T16:06:36.158Z,42.45
2022-10-11T16:09:06.178Z,43.14
2022-10-11T16:11:33.987Z,43.73
2022-10-11T16:14:01.750Z,44.24
2022-10-11T16:16:29.713Z,45.43
2022-10-11T16:18:57.406Z,45.83
2022-10-11T16:21:25.201Z,46.39
2022-10-11T16:23:52.955Z,47.10
2022-10-11T16:26:22.106Z,47.61
2022-10-11T16:28:49.881Z,47.58
2022-10-11T16:31:20.711Z,48.68
2022-10-11T16:33:48.797Z,49.44
2022-10-11T16:36:35.570Z,50.24
2022-10-11T16:39:06.411Z,50.89
2022-10-11T16:41:35.597Z,51.72
2022-10-11T16:44:03.457Z,51.82
2022-10-11T16:46:32.846Z,52.83
2022-10-11T16:49:00.611Z,53.17
2022-10-11T16:51:28.404Z,53.64
2022-10-11T16:53:56.154Z,55.04
2022-10-11T16:56:25.056Z,54.96
2022-10-11T16:58:54.461Z,54.97
2022-10-11T17:01:23.084Z,55.72
2022-10-11T17:03:51.461Z,56.04
2022-10-11T17:06:19.743Z,56.75
2022-10-11T17:08:47.647Z,57.13
2022-10-11T17:11:17.388Z,57.79
2022-10-11T17:13:45.257Z,59.33
2022-10-11T17:16:14.437Z,59.84
2022-10-11T17:18:42.181Z,59.28
2022-10-11T17:21:13.167Z,59.58
2022-10-11T17:23:40.994Z,59.52
2022-10-11T17:26:11.619Z,61.10
2022-10-11T17:28:39.797Z,62.14
2022-10-11T17:31:08.666Z,62.05
2022-10-11T17:33:38.740Z,62.63
2022-10-11T17:36:15.685Z,62.92
2022-10-11T17:38:43.505Z,62.80
2022-10-11T17:41:11.288Z,64.27
2022-10-11T17:43:39.616Z,64.32
2022-10-11T17:46:08.998Z,64.66
2022-10-11T17:48:39.307Z,65.07
2022-10-11T17:51:09.124Z,66.00
2022-10-11T17:53:37.848Z,66.39
2022-10-11T17:56:07.679Z,66.54
2022-10-11T17:58:35.793Z,67.00
2022-10-11T18:01:04.838Z,68.04
2022-10-11T18:03:33.164Z,69.41
2022-10-11T18:06:05.647Z,69.81
2022-10-11T18:08:39.152Z,68.79
2022-10-11T18:11:11.068Z,69.29
2022-10-11T18:13:42.153Z,69.09
2022-10-11T18:16:10.455Z,69.89
2022-10-11T18:18:38.659Z,70.97
2022-10-11T18:21:07.762Z,70.30
2022-10-11T18:23:37.054Z,70.00
2022-10-11T18:26:10.338Z,70.70
2022-10-11T18:28:38.547Z,71.54
2022-10-11T18:31:12.650Z,71.27
2022-10-11T18:33:41.768Z,71.01
2022-10-11T18:36:13.432Z,71.09
2022-10-11T18:38:46.282Z,72.49
2022-10-11T18:41:16.157Z,72.50
2022-10-11T18:43:44.012Z,72.39
2022-10-11T18:46:13.878Z,72.44
2022-10-11T18:48:42.394Z,71.93
2022-10-11T18:51:14.091Z,72.64
2022-10-11T18:53:42.640Z,72.57
2022-10-11T18:56:11.924Z,72.29
2022-10-11T18:58:40.608Z,72.48
2022-10-11T19:01:10.222Z,71.98
2022-10-11T19:03:38.570Z,72.11
2022-10-11T19:06:08.863Z,71.60
2022-10-11T19:08:38.213Z,71.98
2022-10-11T19:11:07.536Z,72.65
2022-10-11T19:13:35.518Z,73.33
2022-10-11T19:16:07.478Z,73.75
2022-10-11T19:18:38.282Z,74.85
2022-10-11T19:21:10.226Z,74.49
2022-10-11T19:23:40.872Z,74.99
2022-10-11T19:26:09.371Z,74.68
2022-10-11T19:28:37.509Z,75.69
2022-10-11T19:31:07.198Z,76.66
2022-10-11T19:33:35.780Z,76.42
2022-10-11T19:36:05.196Z,76.35
2022-10-11T19:38:34.036Z,77.38
2022-10-11T19:41:04.233Z,78.31
2022-10-11T19:43:32.239Z,78.11
2022-10-11T19:46:01.558Z,77.74
2022-10-11T19:48:29.562Z,77.77
2022-10-11T19:51:03.423Z,77.09
2022-10-11T19:53:31.220Z,76.92
2022-10-11T19:56:01.299Z,77.16
2022-10-11T19:58:30.490Z,77.14
2022-10-11T20:01:03.796Z,77.58
2022-10-11T20:03:31.861Z,78.27
2022-10-11T20:06:02.948Z,77.93
2022-10-11T20:08:31.808Z,77.61
2022-10-11T20:11:00.212Z,77.95
2022-10-11T20:13:34.593Z,77.99
2022-10-11T20:16:04.270Z,78.22
2022-10-11T20:18:32.601Z,78.65
2022-10-11T20:21:01.444Z,78.57
2022-10-11T20:23:29.260Z,78.83
2022-10-11T20:26:00.642Z,78.94
2022-10-11T20:28:31.310Z,78.58
2022-10-11T20:30:59.693Z,77.93
2022-10-11T20:33:27.651Z,77.72
2022-10-11T20:35:59.788Z,77.86
2022-10-11T20:38:28.275Z,77.71
2022-10-11T20:40:56.104Z,77.40
2022-10-11T20:43:24.159Z,77.34
2022-10-11T20:46:04.440Z,77.35
2022-10-11T20:48:33.028Z,77.30
2022-10-11T20:51:01.035Z,78.04
2022-10-11T20:53:29.347Z,78.21
2022-10-11T20:55:57.510Z,77.91
2022-10-11T20:58:25.310Z,77.42
2022-10-11T21:00:53.098Z,77.30
2022-10-11T21:03:22.181Z,77.51
2022-10-11T21:05:58.749Z,78.01
2022-10-11T21:08:26.678Z,78.38
2022-10-11T21:10:55.290Z,78.89
2022-10-11T21:13:23.650Z,79.27
2022-10-11T21:15:51.443Z,79.26
2022-10-11T21:18:19.323Z,79.04
2022-10-11T21:20:48.748Z,77.97
2022-10-11T21:23:18.817Z,77.31
2022-10-11T21:25:46.588Z,76.93
2022-10-11T21:28:14.362Z,77.24
2022-10-11T21:30:42.197Z,77.64
2022-10-11T21:33:09.951Z,78.35
2022-10-11T21:35:39.748Z,78.67
2022-10-11T21:38:10.472Z,78.21
2022-10-11T21:40:39.910Z,77.75
2022-10-11T21:43:07.766Z,77.82
2022-10-11T21:45:37.788Z,77.89
2022-10-11T21:48:06.216Z,78.06
2022-10-11T21:50:34.104Z,78.43
2022-10-11T21:53:02.187Z,78.31
2022-10-11T21:55:31.454Z,78.74
2022-10-11T21:57:59.409Z,79.23
2022-10-11T22:00:27.293Z,78.79
2022-10-11T22:02:55.217Z,78.81
2022-10-11T22:05:23.132Z,78.57
2022-10-11T22:07:51.140Z,78.13
2022-10-11T22:10:19.012Z,78.39
2022-10-11T22:12:48.188Z,77.87
2022-10-11T22:15:16.088Z,77.80
2022-10-11T22:17:43.968Z,77.52
2022-10-11T22:20:11.981Z,77.29
2022-10-11T22:22:39.967Z,77.16
2022-10-11T22:25:08.765Z,77.30
2022-10-11T22:27:36.726Z,77.42
2022-10-11T22:30:06.685Z,77.02
2022-10-11T22:32:34.652Z,77.19
2022-10-11T22:35:02.644Z,76.03
2022-10-11T22:37:30.681Z,75.88
2022-10-11T22:39:58.424Z,75.73
2022-10-11T22:42:27.703Z,75.57
2022-10-11T22:44:56.568Z,75.04
2022-10-11T22:47:25.670Z,75.28
2022-10-11T22:49:53.426Z,74.56
2022-10-11T22:52:21.284Z,74.20
2022-10-11T22:54:49.003Z,73.96
2022-10-11T22:57:16.813Z,74.19
2022-10-11T22:59:44.950Z,74.44
2022-10-11T23:02:12.804Z,75.07
2022-10-11T23:04:41.992Z,75.18
2022-10-11T23:07:09.769Z,75.63
2022-10-11T23:09:37.608Z,76.32
2022-10-11T23:12:05.976Z,76.47
2022-10-11T23:14:33.708Z,76.21
2022-10-11T23:17:01.457Z,76.04
2022-10-11T23:19:29.262Z,75.71
2022-10-11T23:21:58.342Z,74.99
2022-10-11T23:24:26.146Z,75.55
2022-10-11T23:26:53.849Z,76.14
2022-10-11T23:29:21.636Z,76.64
2022-10-11T23:31:49.353Z,77.39
2022-10-11T23:34:17.290Z,78.27
2022-10-11T23:36:45.081Z,77.93
2022-10-11T23:39:15.960Z,76.80
2022-10-11T23:41:44.206Z,76.23
2022-10-11T23:44:12.115Z,76.35
2022-10-11T23:46:39.903Z,76.38
2022-10-11T23:49:07.647Z,76.55
2022-10-11T23:51:35.593Z,75.82
2022-10-11T23:54:03.667Z,76.14
2022-10-11T23:56:32.935Z,76.10
2022-10-11T23:59:00.702Z,76.45
